sensor_id;sensor_type;location;lat;lon;timestamp;P1;durP1;ratioP1;P2;durP2;ratioP2
58966;SDS011;44744;51.894;5.080;2024-01-16T00:04:17;3.60;;;1.60;;
58966;SDS011;44744;51.894;5.080;2024-01-16T00:09:18;5.10;;;1.90;;
58966;SDS011;44744;51.894;5.080;2024-01-16T00:14:19;12.10;;;2.40;;
58966;SDS011;44744;51.894;5.080;2024-01-16T00:19:19;6.00;;;2.20;;
58966;SDS011;44744;51.894;5.080;2024-01-16T00:24:19;7.10;;;2.10;;
58966;SDS011;44744;51.894;5.080;2024-01-16T00:29:20;5.50;;;2.60;;
58966;SDS011;44744;51.894;5.080;2024-01-16T00:34:20;8.00;;;2.60;;
58966;SDS011;44744;51.894;5.080;2024-01-16T00:39:21;8.10;;;2.70;;
58966;SDS011;44744;51.894;5.080;2024-01-16T00:44:21;12.50;;;3.50;;
58966;SDS011;44744;51.894;5.080;2024-01-16T00:49:22;7.00;;;2.90;;
58966;SDS011;44744;51.894;5.080;2024-01-16T00:54:22;8.40;;;2.60;;
58966;SDS011;44744;51.894;5.080;2024-01-16T00:59:22;7.10;;;2.80;;
58966;SDS011;44744;51.894;5.080;2024-01-16T01:04:23;7.70;;;2.80;;
58966;SDS011;44744;51.894;5.080;2024-01-16T01:09:23;16.60;;;3.10;;
58966;SDS011;44744;51.894;5.080;2024-01-16T01:14:24;9.60;;;3.00;;
58966;SDS011;44744;51.894;5.080;2024-01-16T01:19:26;13.10;;;4.00;;
58966;SDS011;44744;51.894;5.080;2024-01-16T01:24:27;7.40;;;2.30;;
58966;SDS011;44744;51.894;5.080;2024-01-16T01:29:27;8.70;;;2.50;;
58966;SDS011;44744;51.894;5.080;2024-01-16T01:34:27;6.90;;;2.30;;
58966;SDS011;44744;51.894;5.080;2024-01-16T01:39:28;7.80;;;2.20;;
58966;SDS011;44744;51.894;5.080;2024-01-16T01:44:28;8.30;;;2.30;;
58966;SDS011;44744;51.894;5.080;2024-01-16T01:49:30;4.90;;;2.00;;
58966;SDS011;44744;51.894;5.080;2024-01-16T01:54:31;6.50;;;2.50;;
58966;SDS011;44744;51.894;5.080;2024-01-16T01:59:35;12.60;;;2.50;;
58966;SDS011;44744;51.894;5.080;2024-01-16T02:04:35;4.60;;;1.70;;
58966;SDS011;44744;51.894;5.080;2024-01-16T02:09:36;6.60;;;1.90;;
58966;SDS011;44744;51.894;5.080;2024-01-16T02:14:38;10.60;;;2.10;;
58966;SDS011;44744;51.894;5.080;2024-01-16T02:19:38;6.50;;;1.90;;
58966;SDS011;44744;51.894;5.080;2024-01-16T02:24:38;9.00;;;2.40;;
58966;SDS011;44744;51.894;5.080;2024-01-16T02:29:42;5.80;;;1.50;;
58966;SDS011;44744;51.894;5.080;2024-01-16T02:34:45;6.30;;;1.60;;
58966;SDS011;44744;51.894;5.080;2024-01-16T02:39:45;3.20;;;1.40;;
58966;SDS011;44744;51.894;5.080;2024-01-16T02:44:46;2.80;;;1.60;;
58966;SDS011;44744;51.894;5.080;2024-01-16T02:49:46;7.20;;;1.60;;
58966;SDS011;44744;51.894;5.080;2024-01-16T02:54:48;9.90;;;1.80;;
58966;SDS011;44744;51.894;5.080;2024-01-16T02:59:48;6.80;;;1.40;;
58966;SDS011;44744;51.894;5.080;2024-01-16T03:04:49;8.00;;;1.60;;
58966;SDS011;44744;51.894;5.080;2024-01-16T03:09:50;6.00;;;1.80;;
58966;SDS011;44744;51.894;5.080;2024-01-16T03:14:51;5.20;;;1.30;;
58966;SDS011;44744;51.894;5.080;2024-01-16T03:19:53;7.60;;;1.60;;
58966;SDS011;44744;51.894;5.080;2024-01-16T03:24:53;3.70;;;1.20;;
58966;SDS011;44744;51.894;5.080;2024-01-16T03:29:54;1.90;;;1.10;;
58966;SDS011;44744;51.894;5.080;2024-01-16T03:34:54;3.40;;;1.20;;
58966;SDS011;44744;51.894;5.080;2024-01-16T03:39:55;3.90;;;1.40;;
58966;SDS011;44744;51.894;5.080;2024-01-16T03:44:55;7.60;;;1.20;;
58966;SDS011;44744;51.894;5.080;2024-01-16T03:49:56;3.80;;;1.30;;
58966;SDS011;44744;51.894;5.080;2024-01-16T03:54:57;3.20;;;1.20;;
58966;SDS011;44744;51.894;5.080;2024-01-16T03:59:57;6.60;;;2.20;;
58966;SDS011;44744;51.894;5.080;2024-01-16T04:04:58;3.40;;;1.30;;
58966;SDS011;44744;51.894;5.080;2024-01-16T04:09:59;3.80;;;1.80;;
58966;SDS011;44744;51.894;5.080;2024-01-16T04:15:01;3.60;;;1.60;;
58966;SDS011;44744;51.894;5.080;2024-01-16T04:20:02;3.30;;;1.40;;
58966;SDS011;44744;51.894;5.080;2024-01-16T04:25:03;6.20;;;1.60;;
58966;SDS011;44744;51.894;5.080;2024-01-16T04:30:05;5.70;;;2.40;;
58966;SDS011;44744;51.894;5.080;2024-01-16T04:35:06;4.30;;;1.60;;
58966;SDS011;44744;51.894;5.080;2024-01-16T04:40:07;3.10;;;2.00;;
58966;SDS011;44744;51.894;5.080;2024-01-16T04:45:08;3.10;;;1.60;;
58966;SDS011;44744;51.894;5.080;2024-01-16T04:50:08;4.70;;;1.60;;
58966;SDS011;44744;51.894;5.080;2024-01-16T04:55:09;6.20;;;1.60;;
58966;SDS011;44744;51.894;5.080;2024-01-16T05:00:10;4.50;;;1.80;;
58966;SDS011;44744;51.894;5.080;2024-01-16T05:05:11;7.80;;;1.80;;
58966;SDS011;44744;51.894;5.080;2024-01-16T05:10:12;4.30;;;2.10;;
58966;SDS011;44744;51.894;5.080;2024-01-16T05:15:13;6.30;;;1.70;;
58966;SDS011;44744;51.894;5.080;2024-01-16T05:20:18;7.80;;;2.30;;
58966;SDS011;44744;51.894;5.080;2024-01-16T05:25:18;5.20;;;2.10;;
58966;SDS011;44744;51.894;5.080;2024-01-16T05:30:20;6.70;;;2.10;;
58966;SDS011;44744;51.894;5.080;2024-01-16T05:35:20;6.40;;;2.00;;
58966;SDS011;44744;51.894;5.080;2024-01-16T05:40:21;6.60;;;2.10;;
58966;SDS011;44744;51.894;5.080;2024-01-16T05:45:22;7.20;;;2.00;;
58966;SDS011;44744;51.894;5.080;2024-01-16T05:50:22;9.10;;;2.40;;
58966;SDS011;44744;51.894;5.080;2024-01-16T05:55:23;4.60;;;2.10;;
58966;SDS011;44744;51.894;5.080;2024-01-16T06:00:23;10.30;;;4.20;;
58966;SDS011;44744;51.894;5.080;2024-01-16T06:05:23;13.70;;;2.80;;
58966;SDS011;44744;51.894;5.080;2024-01-16T06:10:24;9.00;;;3.20;;
58966;SDS011;44744;51.894;5.080;2024-01-16T06:15:25;12.10;;;3.50;;
58966;SDS011;44744;51.894;5.080;2024-01-16T06:20:25;9.00;;;3.90;;
58966;SDS011;44744;51.894;5.080;2024-01-16T06:25:26;8.10;;;4.00;;
58966;SDS011;44744;51.894;5.080;2024-01-16T06:30:26;10.20;;;4.20;;
58966;SDS011;44744;51.894;5.080;2024-01-16T06:35:27;7.60;;;3.40;;
58966;SDS011;44744;51.894;5.080;2024-01-16T06:40:27;10.70;;;3.80;;
58966;SDS011;44744;51.894;5.080;2024-01-16T06:45:28;9.90;;;3.30;;
58966;SDS011;44744;51.894;5.080;2024-01-16T06:50:28;8.40;;;2.80;;
58966;SDS011;44744;51.894;5.080;2024-01-16T06:55:29;8.60;;;3.10;;
58966;SDS011;44744;51.894;5.080;2024-01-16T07:00:29;8.60;;;2.60;;
58966;SDS011;44744;51.894;5.080;2024-01-16T07:05:30;8.10;;;3.50;;
58966;SDS011;44744;51.894;5.080;2024-01-16T07:10:30;9.80;;;2.90;;
58966;SDS011;44744;51.894;5.080;2024-01-16T07:15:31;7.70;;;3.10;;
58966;SDS011;44744;51.894;5.080;2024-01-16T07:20:32;12.60;;;3.70;;
58966;SDS011;44744;51.894;5.080;2024-01-16T07:25:32;10.80;;;3.00;;
58966;SDS011;44744;51.894;5.080;2024-01-16T07:30:32;9.00;;;3.50;;
58966;SDS011;44744;51.894;5.080;2024-01-16T07:35:33;8.80;;;3.00;;
58966;SDS011;44744;51.894;5.080;2024-01-16T07:40:33;9.40;;;3.30;;
58966;SDS011;44744;51.894;5.080;2024-01-16T07:45:34;7.40;;;3.10;;
58966;SDS011;44744;51.894;5.080;2024-01-16T07:50:34;11.60;;;3.30;;
58966;SDS011;44744;51.894;5.080;2024-01-16T07:55:34;7.70;;;2.90;;
58966;SDS011;44744;51.894;5.080;2024-01-16T08:00:35;8.50;;;3.20;;
58966;SDS011;44744;51.894;5.080;2024-01-16T08:05:35;9.70;;;3.10;;
58966;SDS011;44744;51.894;5.080;2024-01-16T08:10:36;8.20;;;3.10;;
58966;SDS011;44744;51.894;5.080;2024-01-16T08:15:36;9.40;;;3.50;;
58966;SDS011;44744;51.894;5.080;2024-01-16T08:20:37;9.80;;;3.30;;
58966;SDS011;44744;51.894;5.080;2024-01-16T08:25:37;7.70;;;3.20;;
58966;SDS011;44744;51.894;5.080;2024-01-16T08:30:38;8.30;;;3.80;;
58966;SDS011;44744;51.894;5.080;2024-01-16T08:35:38;11.80;;;3.60;;
58966;SDS011;44744;51.894;5.080;2024-01-16T08:40:39;7.90;;;3.80;;
58966;SDS011;44744;51.894;5.080;2024-01-16T08:45:39;9.30;;;3.40;;
58966;SDS011;44744;51.894;5.080;2024-01-16T08:50:40;8.10;;;3.70;;
58966;SDS011;44744;51.894;5.080;2024-01-16T08:55:41;7.90;;;3.20;;
58966;SDS011;44744;51.894;5.080;2024-01-16T09:00:41;9.10;;;3.70;;
58966;SDS011;44744;51.894;5.080;2024-01-16T09:05:42;6.90;;;3.10;;
58966;SDS011;44744;51.894;5.080;2024-01-16T09:10:43;7.30;;;3.30;;
58966;SDS011;44744;51.894;5.080;2024-01-16T09:15:43;12.30;;;3.60;;
58966;SDS011;44744;51.894;5.080;2024-01-16T09:20:44;7.40;;;3.10;;
58966;SDS011;44744;51.894;5.080;2024-01-16T09:25:44;10.30;;;4.00;;
58966;SDS011;44744;51.894;5.080;2024-01-16T09:30:45;8.80;;;3.40;;
58966;SDS011;44744;51.894;5.080;2024-01-16T09:35:45;7.10;;;3.10;;
58966;SDS011;44744;51.894;5.080;2024-01-16T09:40:46;12.00;;;3.50;;
58966;SDS011;44744;51.894;5.080;2024-01-16T09:45:47;10.20;;;3.20;;
58966;SDS011;44744;51.894;5.080;2024-01-16T09:50:49;10.10;;;3.30;;
58966;SDS011;44744;51.894;5.080;2024-01-16T09:55:50;6.30;;;3.00;;
58966;SDS011;44744;51.894;5.080;2024-01-16T10:00:54;9.60;;;3.30;;
58966;SDS011;44744;51.894;5.080;2024-01-16T10:05:56;8.70;;;3.40;;
58966;SDS011;44744;51.894;5.080;2024-01-16T10:10:59;11.20;;;3.30;;
58966;SDS011;44744;51.894;5.080;2024-01-16T10:16:00;4.70;;;2.60;;
58966;SDS011;44744;51.894;5.080;2024-01-16T10:21:01;9.20;;;3.20;;
58966;SDS011;44744;51.894;5.080;2024-01-16T10:26:08;7.70;;;3.10;;
58966;SDS011;44744;51.894;5.080;2024-01-16T10:31:10;8.40;;;2.70;;
58966;SDS011;44744;51.894;5.080;2024-01-16T10:36:13;7.40;;;2.60;;
58966;SDS011;44744;51.894;5.080;2024-01-16T10:41:15;7.20;;;2.40;;
58966;SDS011;44744;51.894;5.080;2024-01-16T10:46:17;7.00;;;3.20;;
58966;SDS011;44744;51.894;5.080;2024-01-16T10:51:17;7.60;;;3.10;;
58966;SDS011;44744;51.894;5.080;2024-01-16T10:56:18;12.40;;;3.30;;
58966;SDS011;44744;51.894;5.080;2024-01-16T11:01:19;9.30;;;3.90;;
58966;SDS011;44744;51.894;5.080;2024-01-16T11:06:23;7.40;;;3.50;;
58966;SDS011;44744;51.894;5.080;2024-01-16T11:11:24;7.20;;;2.80;;
58966;SDS011;44744;51.894;5.080;2024-01-16T11:16:25;7.20;;;3.40;;
58966;SDS011;44744;51.894;5.080;2024-01-16T11:21:26;12.30;;;4.10;;
58966;SDS011;44744;51.894;5.080;2024-01-16T11:31:36;8.00;;;3.90;;
58966;SDS011;44744;51.894;5.080;2024-01-16T11:41:57;7.70;;;3.80;;
58966;SDS011;44744;51.894;5.080;2024-01-16T11:47:02;9.90;;;3.50;;
58966;SDS011;44744;51.894;5.080;2024-01-16T11:52:03;8.20;;;3.80;;
58966;SDS011;44744;51.894;5.080;2024-01-16T12:02:18;7.80;;;3.30;;
58966;SDS011;44744;51.894;5.080;2024-01-16T12:07:24;6.40;;;3.10;;
58966;SDS011;44744;51.894;5.080;2024-01-16T12:12:24;9.00;;;3.50;;
58966;SDS011;44744;51.894;5.080;2024-01-16T12:17:24;12.70;;;3.30;;
58966;SDS011;44744;51.894;5.080;2024-01-16T12:22:25;7.30;;;3.10;;
58966;SDS011;44744;51.894;5.080;2024-01-16T12:27:25;8.00;;;3.20;;
58966;SDS011;44744;51.894;5.080;2024-01-16T12:32:26;9.80;;;3.40;;
58966;SDS011;44744;51.894;5.080;2024-01-16T12:37:27;7.10;;;3.40;;
58966;SDS011;44744;51.894;5.080;2024-01-16T12:42:28;7.90;;;3.90;;
58966;SDS011;44744;51.894;5.080;2024-01-16T12:47:28;10.50;;;3.50;;
58966;SDS011;44744;51.894;5.080;2024-01-16T12:52:30;5.90;;;2.90;;
58966;SDS011;44744;51.894;5.080;2024-01-16T12:57:32;8.80;;;3.30;;
58966;SDS011;44744;51.894;5.080;2024-01-16T13:02:32;5.30;;;3.20;;
58966;SDS011;44744;51.894;5.080;2024-01-16T13:07:34;10.10;;;3.40;;
58966;SDS011;44744;51.894;5.080;2024-01-16T13:12:34;7.30;;;3.40;;
58966;SDS011;44744;51.894;5.080;2024-01-16T13:17:35;6.00;;;3.50;;
58966;SDS011;44744;51.894;5.080;2024-01-16T13:22:36;6.60;;;3.10;;
58966;SDS011;44744;51.894;5.080;2024-01-16T13:27:36;8.50;;;3.40;;
58966;SDS011;44744;51.894;5.080;2024-01-16T13:32:37;7.50;;;3.20;;
58966;SDS011;44744;51.894;5.080;2024-01-16T13:37:37;8.20;;;3.70;;
58966;SDS011;44744;51.894;5.080;2024-01-16T13:42:38;7.00;;;3.10;;
58966;SDS011;44744;51.894;5.080;2024-01-16T13:47:39;7.50;;;3.70;;
58966;SDS011;44744;51.894;5.080;2024-01-16T13:52:40;7.60;;;2.80;;
58966;SDS011;44744;51.894;5.080;2024-01-16T13:57:40;9.80;;;3.50;;
58966;SDS011;44744;51.894;5.080;2024-01-16T14:02:41;10.40;;;3.10;;
58966;SDS011;44744;51.894;5.080;2024-01-16T14:07:44;6.60;;;2.80;;
58966;SDS011;44744;51.894;5.080;2024-01-16T14:12:49;7.40;;;3.00;;
58966;SDS011;44744;51.894;5.080;2024-01-16T14:17:54;7.60;;;3.20;;
58966;SDS011;44744;51.894;5.080;2024-01-16T14:22:56;6.20;;;3.00;;
58966;SDS011;44744;51.894;5.080;2024-01-16T14:33:06;6.90;;;3.20;;
58966;SDS011;44744;51.894;5.080;2024-01-16T14:38:08;6.80;;;3.20;;
58966;SDS011;44744;51.894;5.080;2024-01-16T14:43:08;8.30;;;3.20;;
58966;SDS011;44744;51.894;5.080;2024-01-16T14:48:08;10.10;;;3.20;;
58966;SDS011;44744;51.894;5.080;2024-01-16T14:53:10;9.30;;;2.90;;
58966;SDS011;44744;51.894;5.080;2024-01-16T14:58:11;8.60;;;3.20;;
58966;SDS011;44744;51.894;5.080;2024-01-16T15:03:11;6.50;;;3.00;;
58966;SDS011;44744;51.894;5.080;2024-01-16T15:08:12;10.20;;;3.20;;
58966;SDS011;44744;51.894;5.080;2024-01-16T15:13:13;10.20;;;3.40;;
58966;SDS011;44744;51.894;5.080;2024-01-16T15:18:13;5.80;;;3.10;;
58966;SDS011;44744;51.894;5.080;2024-01-16T15:23:13;7.50;;;3.20;;
58966;SDS011;44744;51.894;5.080;2024-01-16T15:28:14;7.80;;;3.70;;
58966;SDS011;44744;51.894;5.080;2024-01-16T15:33:14;8.60;;;3.30;;
58966;SDS011;44744;51.894;5.080;2024-01-16T15:38:15;9.60;;;3.00;;
58966;SDS011;44744;51.894;5.080;2024-01-16T15:43:15;10.00;;;3.00;;
58966;SDS011;44744;51.894;5.080;2024-01-16T15:48:15;9.20;;;3.60;;
58966;SDS011;44744;51.894;5.080;2024-01-16T15:53:16;10.80;;;3.40;;
58966;SDS011;44744;51.894;5.080;2024-01-16T15:58:16;7.20;;;3.30;;
58966;SDS011;44744;51.894;5.080;2024-01-16T16:03:16;9.10;;;3.40;;
58966;SDS011;44744;51.894;5.080;2024-01-16T16:08:18;7.80;;;3.50;;
58966;SDS011;44744;51.894;5.080;2024-01-16T16:13:19;6.30;;;3.40;;
58966;SDS011;44744;51.894;5.080;2024-01-16T16:18:20;8.50;;;3.80;;
58966;SDS011;44744;51.894;5.080;2024-01-16T16:23:20;7.80;;;3.90;;
58966;SDS011;44744;51.894;5.080;2024-01-16T16:28:21;8.60;;;3.80;;
58966;SDS011;44744;51.894;5.080;2024-01-16T16:33:21;10.20;;;3.60;;
58966;SDS011;44744;51.894;5.080;2024-01-16T16:38:21;7.50;;;3.90;;
58966;SDS011;44744;51.894;5.080;2024-01-16T16:43:22;7.00;;;3.70;;
58966;SDS011;44744;51.894;5.080;2024-01-16T16:48:22;6.10;;;3.50;;
58966;SDS011;44744;51.894;5.080;2024-01-16T16:53:23;10.90;;;3.50;;
58966;SDS011;44744;51.894;5.080;2024-01-16T16:58:23;9.20;;;4.10;;
58966;SDS011;44744;51.894;5.080;2024-01-16T17:03:24;9.20;;;3.70;;
58966;SDS011;44744;51.894;5.080;2024-01-16T17:08:25;12.20;;;4.50;;
58966;SDS011;44744;51.894;5.080;2024-01-16T17:13:27;7.00;;;4.60;;
58966;SDS011;44744;51.894;5.080;2024-01-16T17:18:29;8.50;;;4.70;;
58966;SDS011;44744;51.894;5.080;2024-01-16T17:23:35;12.00;;;5.10;;
58966;SDS011;44744;51.894;5.080;2024-01-16T17:28:36;7.00;;;4.50;;
58966;SDS011;44744;51.894;5.080;2024-01-16T17:33:36;9.20;;;4.30;;
58966;SDS011;44744;51.894;5.080;2024-01-16T17:38:37;8.70;;;4.30;;
58966;SDS011;44744;51.894;5.080;2024-01-16T17:43:37;7.40;;;5.20;;
58966;SDS011;44744;51.894;5.080;2024-01-16T17:48:38;13.20;;;5.10;;
58966;SDS011;44744;51.894;5.080;2024-01-16T17:53:40;8.20;;;5.00;;
58966;SDS011;44744;51.894;5.080;2024-01-16T17:58:43;10.80;;;4.90;;
58966;SDS011;44744;51.894;5.080;2024-01-16T18:03:44;14.30;;;4.80;;
58966;SDS011;44744;51.894;5.080;2024-01-16T18:08:46;8.80;;;4.70;;
58966;SDS011;44744;51.894;5.080;2024-01-16T18:13:48;9.40;;;4.90;;
58966;SDS011;44744;51.894;5.080;2024-01-16T18:18:49;10.60;;;4.60;;
58966;SDS011;44744;51.894;5.080;2024-01-16T18:23:51;7.70;;;4.20;;
58966;SDS011;44744;51.894;5.080;2024-01-16T18:28:52;7.90;;;4.90;;
58966;SDS011;44744;51.894;5.080;2024-01-16T18:33:54;14.80;;;5.30;;
58966;SDS011;44744;51.894;5.080;2024-01-16T18:38:54;9.30;;;4.40;;
58966;SDS011;44744;51.894;5.080;2024-01-16T18:43:55;9.20;;;5.50;;
58966;SDS011;44744;51.894;5.080;2024-01-16T18:48:55;8.40;;;4.80;;
58966;SDS011;44744;51.894;5.080;2024-01-16T18:53:56;11.90;;;5.60;;
58966;SDS011;44744;51.894;5.080;2024-01-16T18:58:56;13.00;;;5.30;;
58966;SDS011;44744;51.894;5.080;2024-01-16T19:03:57;11.00;;;5.60;;
58966;SDS011;44744;51.894;5.080;2024-01-16T19:08:58;11.60;;;5.20;;
58966;SDS011;44744;51.894;5.080;2024-01-16T19:13:59;11.30;;;6.30;;
58966;SDS011;44744;51.894;5.080;2024-01-16T19:19:00;10.20;;;5.80;;
58966;SDS011;44744;51.894;5.080;2024-01-16T19:24:00;11.80;;;5.80;;
58966;SDS011;44744;51.894;5.080;2024-01-16T19:29:01;11.30;;;5.50;;
58966;SDS011;44744;51.894;5.080;2024-01-16T19:34:02;14.70;;;5.20;;
58966;SDS011;44744;51.894;5.080;2024-01-16T19:39:04;6.60;;;4.30;;
58966;SDS011;44744;51.894;5.080;2024-01-16T19:44:04;10.90;;;5.00;;
58966;SDS011;44744;51.894;5.080;2024-01-16T19:49:05;9.70;;;5.10;;
58966;SDS011;44744;51.894;5.080;2024-01-16T19:54:08;10.20;;;6.10;;
58966;SDS011;44744;51.894;5.080;2024-01-16T19:59:08;10.70;;;5.20;;
58966;SDS011;44744;51.894;5.080;2024-01-16T20:04:10;9.80;;;4.90;;
58966;SDS011;44744;51.894;5.080;2024-01-16T20:09:10;14.20;;;5.50;;
58966;SDS011;44744;51.894;5.080;2024-01-16T20:14:11;10.70;;;5.30;;
58966;SDS011;44744;51.894;5.080;2024-01-16T20:19:12;16.30;;;5.50;;
58966;SDS011;44744;51.894;5.080;2024-01-16T20:24:13;11.30;;;5.40;;
58966;SDS011;44744;51.894;5.080;2024-01-16T20:29:14;10.30;;;5.20;;
58966;SDS011;44744;51.894;5.080;2024-01-16T20:34:14;10.80;;;5.60;;
58966;SDS011;44744;51.894;5.080;2024-01-16T20:39:15;11.00;;;5.50;;
58966;SDS011;44744;51.894;5.080;2024-01-16T20:44:15;8.80;;;5.80;;
58966;SDS011;44744;51.894;5.080;2024-01-16T20:49:21;14.50;;;6.80;;
58966;SDS011;44744;51.894;5.080;2024-01-16T20:54:22;13.80;;;6.30;;
58966;SDS011;44744;51.894;5.080;2024-01-16T20:59:23;15.80;;;5.80;;
58966;SDS011;44744;51.894;5.080;2024-01-16T21:04:24;9.80;;;6.40;;
58966;SDS011;44744;51.894;5.080;2024-01-16T21:09:25;10.30;;;6.30;;
58966;SDS011;44744;51.894;5.080;2024-01-16T21:14:26;14.90;;;7.20;;
58966;SDS011;44744;51.894;5.080;2024-01-16T21:19:26;13.40;;;7.20;;
58966;SDS011;44744;51.894;5.080;2024-01-16T21:24:27;12.30;;;6.80;;
58966;SDS011;44744;51.894;5.080;2024-01-16T21:29:28;12.90;;;6.70;;
58966;SDS011;44744;51.894;5.080;2024-01-16T21:34:29;14.90;;;7.30;;
58966;SDS011;44744;51.894;5.080;2024-01-16T21:39:29;11.90;;;6.80;;
58966;SDS011;44744;51.894;5.080;2024-01-16T21:44:31;16.50;;;6.70;;
58966;SDS011;44744;51.894;5.080;2024-01-16T21:49:32;19.90;;;7.30;;
58966;SDS011;44744;51.894;5.080;2024-01-16T21:54:32;16.00;;;7.20;;
58966;SDS011;44744;51.894;5.080;2024-01-16T21:59:33;13.30;;;7.80;;
58966;SDS011;44744;51.894;5.080;2024-01-16T22:04:33;11.90;;;6.70;;
58966;SDS011;44744;51.894;5.080;2024-01-16T22:09:34;12.60;;;7.90;;
58966;SDS011;44744;51.894;5.080;2024-01-16T22:14:35;16.30;;;7.90;;
58966;SDS011;44744;51.894;5.080;2024-01-16T22:19:37;12.00;;;7.40;;
58966;SDS011;44744;51.894;5.080;2024-01-16T22:24:37;13.60;;;7.70;;
58966;SDS011;44744;51.894;5.080;2024-01-16T22:29:38;17.70;;;8.00;;
58966;SDS011;44744;51.894;5.080;2024-01-16T22:34:38;13.20;;;8.70;;
58966;SDS011;44744;51.894;5.080;2024-01-16T22:39:42;16.80;;;8.30;;
58966;SDS011;44744;51.894;5.080;2024-01-16T22:44:44;17.00;;;8.40;;
58966;SDS011;44744;51.894;5.080;2024-01-16T22:49:44;16.20;;;8.10;;
58966;SDS011;44744;51.894;5.080;2024-01-16T22:54:45;19.30;;;9.20;;
58966;SDS011;44744;51.894;5.080;2024-01-16T22:59:45;14.00;;;8.60;;
58966;SDS011;44744;51.894;5.080;2024-01-16T23:04:45;14.20;;;8.40;;
58966;SDS011;44744;51.894;5.080;2024-01-16T23:09:46;18.10;;;10.10;;
58966;SDS011;44744;51.894;5.080;2024-01-16T23:14:47;19.00;;;10.10;;
58966;SDS011;44744;51.894;5.080;2024-01-16T23:19:47;18.10;;;10.30;;
58966;SDS011;44744;51.894;5.080;2024-01-16T23:24:53;19.40;;;9.40;;
58966;SDS011;44744;51.894;5.080;2024-01-16T23:29:53;21.10;;;11.30;;
58966;SDS011;44744;51.894;5.080;2024-01-16T23:34:54;18.10;;;10.10;;
58966;SDS011;44744;51.894;5.080;2024-01-16T23:39:54;17.10;;;9.70;;
58966;SDS011;44744;51.894;5.080;2024-01-16T23:44:55;18.80;;;10.70;;
58966;SDS011;44744;51.894;5.080;2024-01-16T23:49:57;18.40;;;10.90;;
58966;SDS011;44744;51.894;5.080;2024-01-16T23:54:57;18.90;;;10.70;;
58966;SDS011;44744;51.894;5.080;2024-01-16T23:59:57;15.80;;;10.30;;
